Search for airport 
image banner adimage banner adimage banner ad
image banner ad

KAXA - Algona Muni

Located in Algona, United States

ICAO - AXA, IATA - AXG

Data provided by Airmate  

General information

Coordinates: N43°4'41" W94°16'19"
Elevation is 1216 feet MSL.
Magnetic variation is 03° East
View others Airports in Iowa

Operational data

Special qualification required
Current time UTC:
Current local time:
Weather
METAR: KAXA 181735Z AUTO 16007KT 10SM CLR 30/12 A2988 RMK A01
View NOTAMs / SUP AIP / TFR affecting this airport [VIEW]
Communications frequencies: [VIEW]

Runways:

RWY identifierQFULength (ft)Width (ft)SurfaceLDA (ft)
12132°396075CONC
30312°396075CONC
18189°2895160GRASS
362895160GRASS

Airport contact information

Address: Algona United States

Other aviation service providers

Flight schools

Algona Aero Service, Inc.

Algona Aero Service, Inc.
algonaaero@gmail.com+1(515)295-7492

Satellite view of KAXA